createdAt,value
2018-12-03T00:00:27.222Z,10.27
2018-12-03T00:02:58.682Z,8.80
2018-12-03T00:05:27.382Z,9.33
2018-12-03T00:07:56.075Z,8.53
2018-12-03T00:10:24.784Z,6.90
2018-12-03T00:12:53.468Z,8.17
2018-12-03T00:15:22.140Z,7.93
2018-12-03T00:17:50.842Z,8.07
2018-12-03T00:20:19.576Z,8.33
2018-12-03T00:22:48.339Z,6.60
2018-12-03T00:25:17.044Z,8.93
2018-12-03T00:27:52.066Z,8.47
2018-12-03T00:30:21.083Z,8.10
2018-12-03T00:32:50.031Z,7.63
2018-12-03T00:35:18.715Z,9.20
2018-12-03T00:37:47.423Z,9.33
2018-12-03T00:40:16.110Z,7.70
2018-12-03T00:42:44.849Z,8.57
2018-12-03T00:45:13.578Z,7.60
2018-12-03T00:47:42.244Z,8.70
2018-12-03T00:50:10.958Z,9.07
2018-12-03T00:52:39.664Z,8.17
2018-12-03T00:55:08.850Z,8.03
2018-12-03T00:57:37.513Z,6.37
2018-12-03T01:00:08.802Z,7.47
2018-12-03T01:02:37.553Z,9.53
2018-12-03T01:05:07.957Z,8.63
2018-12-03T01:07:36.806Z,9.23
2018-12-03T01:10:07.431Z,8.53
2018-12-03T01:12:36.167Z,7.13
2018-12-03T01:15:06.813Z,7.17
2018-12-03T01:17:35.493Z,10.23
2018-12-03T01:20:05.762Z,6.23
2018-12-03T01:22:34.461Z,7.33
2018-12-03T01:25:03.188Z,5.70
2018-12-03T01:27:31.857Z,8.53
2018-12-03T01:30:00.651Z,7.67
2018-12-03T01:32:29.320Z,7.63
2018-12-03T01:34:58.030Z,8.93
2018-12-03T01:37:26.713Z,9.80
2018-12-03T01:39:55.362Z,8.20
2018-12-03T01:42:24.031Z,8.87
2018-12-03T01:44:52.703Z,8.60
2018-12-03T01:47:21.385Z,7.87
2018-12-03T01:49:50.057Z,8.10
2018-12-03T01:52:19.213Z,11.13
2018-12-03T01:54:47.939Z,8.00
2018-12-03T01:57:16.614Z,10.50
2018-12-03T01:59:45.322Z,11.20
2018-12-03T02:02:14.002Z,8.80
2018-12-03T02:04:42.655Z,8.30
2018-12-03T02:07:11.317Z,9.03
2018-12-03T02:09:39.993Z,7.17
2018-12-03T02:12:08.678Z,9.77
2018-12-03T02:14:37.512Z,9.50
2018-12-03T02:17:06.226Z,7.97
2018-12-03T02:19:34.891Z,7.80
2018-12-03T02:22:03.679Z,5.83
2018-12-03T02:24:32.333Z,8.30
2018-12-03T02:27:01.057Z,9.37
2018-12-03T02:29:29.763Z,10.10
2018-12-03T02:31:58.418Z,9.03
2018-12-03T02:34:27.097Z,8.93
2018-12-03T02:36:55.751Z,9.20
2018-12-03T02:39:24.414Z,10.07
2018-12-03T02:41:53.044Z,7.37
2018-12-03T02:44:21.695Z,9.77
2018-12-03T02:46:50.426Z,8.93
2018-12-03T02:49:19.025Z,8.20
2018-12-03T02:51:47.684Z,10.33
2018-12-03T02:54:16.351Z,8.97
2018-12-03T02:56:44.986Z,8.07
2018-12-03T02:59:13.630Z,10.70
2018-12-03T03:01:42.374Z,9.63
2018-12-03T03:04:11.014Z,8.27
2018-12-03T03:06:39.665Z,8.20
2018-12-03T03:09:10.781Z,7.67
2018-12-03T03:11:39.410Z,9.97
2018-12-03T03:14:08.058Z,9.47
2018-12-03T03:16:36.702Z,8.93
2018-12-03T03:19:05.543Z,7.83
2018-12-03T03:21:34.205Z,7.03
2018-12-03T03:24:02.847Z,7.27
2018-12-03T03:26:31.538Z,6.03
2018-12-03T03:29:00.186Z,6.47
2018-12-03T03:31:28.819Z,6.10
2018-12-03T03:33:57.469Z,5.30
2018-12-03T03:36:26.104Z,6.43
2018-12-03T03:38:54.766Z,7.33
2018-12-03T03:41:23.445Z,10.27
2018-12-03T03:43:52.101Z,8.40
2018-12-03T03:46:20.739Z,9.20
2018-12-03T03:48:49.422Z,9.40
2018-12-03T03:51:18.095Z,8.47
2018-12-03T03:53:46.738Z,9.17
2018-12-03T03:56:15.415Z,8.27
2018-12-03T03:58:44.083Z,8.67
2018-12-03T04:01:12.755Z,7.47
2018-12-03T04:03:41.437Z,7.67
2018-12-03T04:06:10.122Z,8.97
2018-12-03T04:08:38.768Z,9.53
2018-12-03T04:11:07.438Z,7.13
2018-12-03T04:13:36.103Z,9.77
2018-12-03T04:16:04.966Z,8.07
2018-12-03T04:18:33.617Z,9.03
2018-12-03T04:21:02.266Z,9.60
2018-12-03T04:23:30.907Z,7.73
2018-12-03T04:25:59.559Z,9.43
2018-12-03T04:28:28.221Z,8.53
2018-12-03T04:30:56.892Z,7.77
2018-12-03T04:33:25.578Z,8.27
2018-12-03T04:35:54.247Z,7.63
2018-12-03T04:38:22.922Z,7.67
2018-12-03T04:40:52.178Z,10.37
2018-12-03T04:43:20.830Z,9.50
2018-12-03T04:45:49.508Z,9.33
2018-12-03T04:48:18.159Z,9.10
2018-12-03T04:50:46.832Z,9.33
2018-12-03T04:53:15.502Z,10.00
2018-12-03T04:55:44.143Z,8.43
2018-12-03T04:58:12.786Z,10.23
2018-12-03T05:00:41.538Z,9.33
2018-12-03T05:03:10.195Z,10.67
2018-12-03T05:05:38.841Z,9.07
2018-12-03T05:08:07.632Z,8.93
2018-12-03T05:10:36.290Z,8.10
2018-12-03T05:13:05.031Z,7.83
2018-12-03T05:15:33.726Z,9.00
2018-12-03T05:18:02.417Z,8.10
2018-12-03T05:20:31.059Z,9.00
2018-12-03T05:22:59.731Z,8.60
2018-12-03T05:25:28.368Z,8.27
2018-12-03T05:27:57.078Z,8.43
2018-12-03T05:30:25.730Z,6.77
2018-12-03T05:32:54.370Z,8.30
2018-12-03T05:35:25.562Z,8.13
2018-12-03T05:37:54.226Z,8.07
2018-12-03T05:40:25.214Z,7.40
2018-12-03T05:42:53.882Z,8.10
2018-12-03T05:45:22.552Z,8.40
2018-12-03T05:47:51.213Z,8.00
2018-12-03T05:50:19.866Z,9.77
2018-12-03T05:52:48.842Z,8.80
2018-12-03T05:55:17.518Z,10.57
2018-12-03T05:57:46.507Z,9.50
2018-12-03T06:00:19.471Z,9.43
2018-12-03T06:02:48.099Z,9.07
2018-12-03T06:05:17.021Z,9.17
2018-12-03T06:07:45.709Z,10.10
2018-12-03T06:10:15.389Z,8.87
2018-12-03T06:12:44.072Z,8.33
2018-12-03T06:15:13.753Z,7.47
2018-12-03T06:17:42.429Z,9.57
2018-12-03T06:20:13.278Z,8.27
2018-12-03T06:22:41.925Z,10.40
2018-12-03T06:25:17.553Z,9.30
2018-12-03T06:27:46.195Z,8.27
2018-12-03T06:30:16.055Z,7.67
2018-12-03T06:32:44.775Z,8.07
2018-12-03T06:35:14.362Z,8.23
2018-12-03T06:37:43.105Z,8.57
2018-12-03T06:40:13.968Z,7.33
2018-12-03T06:42:42.687Z,7.10
2018-12-03T06:45:13.478Z,10.67
2018-12-03T06:47:47.577Z,7.03
2018-12-03T06:50:16.272Z,7.83
2018-12-03T06:52:44.934Z,9.57
2018-12-03T06:55:13.598Z,6.77
2018-12-03T06:57:42.288Z,7.27
2018-12-03T07:00:12.862Z,6.77
2018-12-03T07:02:41.528Z,8.73
2018-12-03T07:05:10.963Z,6.57
2018-12-03T07:07:39.951Z,9.67
2018-12-03T07:10:14.152Z,7.40
2018-12-03T07:12:43.066Z,7.67
2018-12-03T07:15:13.346Z,6.73
2018-12-03T07:17:42.125Z,7.07
2018-12-03T07:20:11.877Z,7.63
2018-12-03T07:22:40.735Z,5.90
2018-12-03T07:25:10.405Z,6.37
2018-12-03T07:27:39.195Z,6.67
2018-12-03T07:30:22.991Z,7.13
2018-12-03T07:32:52.219Z,7.53
2018-12-03T07:35:21.625Z,7.33
2018-12-03T07:37:52.298Z,6.67
2018-12-03T07:40:20.999Z,6.50
2018-12-03T07:42:49.684Z,7.33
2018-12-03T07:45:22.444Z,7.23
2018-12-03T07:47:51.180Z,7.23
2018-12-03T07:50:20.987Z,5.37
2018-12-03T07:52:49.720Z,7.23
2018-12-03T07:55:23.341Z,6.90
2018-12-03T07:57:57.087Z,7.20
2018-12-03T08:00:26.477Z,6.80
2018-12-03T08:02:55.132Z,7.63
2018-12-03T08:05:23.846Z,5.83
2018-12-03T08:07:52.546Z,5.93
2018-12-03T08:10:21.209Z,5.63
2018-12-03T08:12:50.442Z,6.33
2018-12-03T08:15:19.959Z,6.47
2018-12-03T08:17:51.418Z,6.77
2018-12-03T08:20:21.799Z,8.57
2018-12-03T08:22:52.313Z,7.20
2018-12-03T08:25:21.867Z,8.13
2018-12-03T08:27:50.590Z,8.53
2018-12-03T08:30:19.294Z,7.07
2018-12-03T08:32:48.007Z,5.87
2018-12-03T08:35:17.673Z,6.83
2018-12-03T08:37:46.431Z,6.10
2018-12-03T08:40:18.129Z,8.57
2018-12-03T08:42:49.969Z,6.77
2018-12-03T08:45:18.817Z,8.07
2018-12-03T08:47:47.865Z,5.93
2018-12-03T08:50:23.511Z,7.50
2018-12-03T08:52:52.186Z,6.77
2018-12-03T08:55:20.899Z,9.27
2018-12-03T08:57:49.578Z,9.00
2018-12-03T09:00:22.455Z,8.83
2018-12-03T09:02:57.464Z,6.97
2018-12-03T09:05:27.566Z,8.83
2018-12-03T09:07:56.249Z,6.30
2018-12-03T09:10:24.954Z,8.37
2018-12-03T09:12:53.666Z,6.10
2018-12-03T09:15:22.383Z,5.67
2018-12-03T09:17:51.104Z,5.70
2018-12-03T09:20:19.779Z,6.37
2018-12-03T09:22:48.458Z,5.37
2018-12-03T09:25:22.574Z,4.83
2018-12-03T09:27:51.384Z,4.90
2018-12-03T09:30:20.198Z,5.30
2018-12-03T09:32:48.913Z,6.77
2018-12-03T09:35:17.583Z,5.03
2018-12-03T09:37:46.279Z,7.23
2018-12-03T09:40:18.362Z,6.20
2018-12-03T09:42:47.103Z,6.00
2018-12-03T09:45:17.822Z,5.67
2018-12-03T09:47:46.888Z,5.90
2018-12-03T09:50:18.094Z,5.90
2018-12-03T09:52:46.822Z,6.07
2018-12-03T09:55:17.174Z,5.77
2018-12-03T09:57:52.041Z,7.30
2018-12-03T10:00:20.743Z,3.90
2018-12-03T10:02:49.402Z,5.77
2018-12-03T10:05:18.098Z,4.97
2018-12-03T10:07:46.785Z,5.00
2018-12-03T10:10:15.986Z,4.43
2018-12-03T10:12:44.706Z,4.10
2018-12-03T10:15:14.270Z,4.53
2018-12-03T10:17:47.717Z,4.90
2018-12-03T10:20:16.386Z,1.97
2018-12-03T10:22:49.163Z,3.90
2018-12-03T10:25:17.874Z,3.33
2018-12-03T10:27:46.587Z,2.20
2018-12-03T10:30:19.195Z,5.23
2018-12-03T10:32:49.237Z,4.37
2018-12-03T10:35:18.078Z,4.47
2018-12-03T10:37:46.950Z,3.63
2018-12-03T10:40:19.976Z,5.33
2018-12-03T10:42:49.517Z,4.50
2018-12-03T10:45:26.002Z,2.97
2018-12-03T10:47:49.802Z,2.80
2018-12-03T10:50:22.197Z,4.00
2018-12-03T10:52:48.271Z,4.17
2018-12-03T10:55:17.027Z,3.40
2018-12-03T10:57:46.203Z,5.67
2018-12-03T11:00:20.985Z,4.83
2018-12-03T11:02:55.846Z,4.83
2018-12-03T11:05:32.328Z,4.83
2018-12-03T11:08:01.123Z,4.97
2018-12-03T11:10:38.406Z,4.60
2018-12-03T11:13:07.240Z,4.93
2018-12-03T11:15:36.049Z,5.80
2018-12-03T11:18:05.825Z,3.80
2018-12-03T11:20:34.522Z,4.47
2018-12-03T11:23:03.299Z,5.07
2018-12-03T11:25:33.954Z,4.77
2018-12-03T11:28:04.175Z,5.80
2018-12-03T11:30:33.078Z,4.27
2018-12-03T11:33:01.743Z,6.53
2018-12-03T11:35:31.834Z,5.60
2018-12-03T11:38:15.402Z,3.93
2018-12-03T11:40:47.505Z,1.67
2018-12-03T11:43:16.215Z,2.40
2018-12-03T11:45:44.915Z,3.07
2018-12-03T11:48:13.573Z,3.47
2018-12-03T11:50:42.290Z,5.47
2018-12-03T11:53:10.988Z,3.83
2018-12-03T11:55:39.691Z,2.83
2018-12-03T11:58:08.369Z,4.30
2018-12-03T12:00:37.038Z,4.77
2018-12-03T12:03:06.055Z,4.27
2018-12-03T12:05:34.779Z,3.83
2018-12-03T12:08:03.426Z,3.40
2018-12-03T12:10:32.088Z,3.67
2018-12-03T12:13:00.835Z,4.20
2018-12-03T12:15:29.534Z,2.73
2018-12-03T12:17:58.243Z,2.50
2018-12-03T12:20:26.923Z,2.50
2018-12-03T12:22:55.617Z,2.13
2018-12-03T12:25:24.274Z,2.33
2018-12-03T12:27:55.149Z,2.20
2018-12-03T12:30:23.817Z,3.07
2018-12-03T12:32:52.483Z,2.67
2018-12-03T12:35:21.141Z,1.90
2018-12-03T12:37:49.811Z,2.23
2018-12-03T12:40:18.509Z,2.00
2018-12-03T12:42:47.162Z,2.40
2018-12-03T12:45:17.764Z,2.40
2018-12-03T12:47:46.635Z,2.40
2018-12-03T12:50:16.986Z,2.50
2018-12-03T12:52:45.679Z,1.50
2018-12-03T12:55:14.457Z,1.73
2018-12-03T12:57:43.784Z,1.20
2018-12-03T13:00:14.531Z,1.30
2018-12-03T13:02:44.070Z,1.10
2018-12-03T13:05:12.966Z,1.23
2018-12-03T13:07:41.672Z,1.50
2018-12-03T13:10:13.393Z,2.17
2018-12-03T13:12:42.562Z,1.57
2018-12-03T13:15:13.103Z,1.77
2018-12-03T13:17:44.018Z,1.73
2018-12-03T13:20:14.432Z,2.00
2018-12-03T13:22:43.372Z,2.17
2018-12-03T13:25:14.002Z,1.30
2018-12-03T13:27:43.049Z,2.33
2018-12-03T13:30:13.744Z,1.70
2018-12-03T13:32:42.937Z,1.87
2018-12-03T13:35:13.005Z,2.03
2018-12-03T13:37:42.471Z,2.13
2018-12-03T13:40:13.602Z,2.20
2018-12-03T13:42:42.744Z,1.23
2018-12-03T13:45:14.079Z,3.67
2018-12-03T13:47:42.786Z,2.33
2018-12-03T13:50:14.150Z,2.00
2018-12-03T13:52:43.430Z,2.13
2018-12-03T13:55:14.912Z,2.03
2018-12-03T13:57:43.702Z,1.30
2018-12-03T14:00:19.550Z,2.27
2018-12-03T14:02:54.383Z,1.90
2018-12-03T14:05:23.143Z,2.47
2018-12-03T14:07:56.801Z,1.67
2018-12-03T14:11:38.676Z,1.60
2018-12-03T14:16:29.889Z,2.00
2018-12-03T14:19:03.198Z,1.80
2018-12-03T14:21:37.542Z,2.40
2018-12-03T14:24:13.026Z,2.53
2018-12-03T14:26:41.802Z,1.70
2018-12-03T14:29:10.518Z,2.57
2018-12-03T14:31:39.397Z,1.43
2018-12-03T14:34:15.563Z,2.47
2018-12-03T14:36:44.390Z,2.30
2018-12-03T14:39:14.138Z,2.10
2018-12-03T14:41:42.889Z,1.40
2018-12-03T14:44:12.366Z,1.60
2018-12-03T14:46:41.334Z,1.10
2018-12-03T14:49:10.038Z,1.77
2018-12-03T14:51:38.860Z,1.90
2018-12-03T14:54:08.373Z,1.70
2018-12-03T14:56:37.950Z,1.70
2018-12-03T14:59:06.842Z,1.50
2018-12-03T15:01:35.665Z,1.50
2018-12-03T15:04:09.537Z,2.23
2018-12-03T15:06:38.362Z,2.20
2018-12-03T15:09:09.204Z,3.00
2018-12-03T15:11:37.990Z,2.70
2018-12-03T15:14:06.791Z,3.07
2018-12-03T15:16:35.957Z,2.00
2018-12-03T15:19:04.735Z,1.50
2018-12-03T15:21:34.002Z,2.10
2018-12-03T15:24:02.729Z,2.70
2018-12-03T15:26:31.540Z,1.90
2018-12-03T15:29:00.398Z,2.30
2018-12-03T15:31:29.318Z,2.00
2018-12-03T15:33:59.521Z,1.87
2018-12-03T15:36:28.431Z,2.77
2018-12-03T15:38:57.296Z,2.83
2018-12-03T15:41:26.606Z,2.70
2018-12-03T15:43:55.414Z,2.20
2018-12-03T15:46:24.158Z,2.27
2018-12-03T15:48:52.862Z,1.80
2018-12-03T15:51:21.540Z,1.90
2018-12-03T15:53:50.222Z,2.90
2018-12-03T15:56:18.924Z,2.40
2018-12-03T15:58:47.561Z,1.77
2018-12-03T16:01:16.279Z,2.70
2018-12-03T16:03:45.062Z,1.60
2018-12-03T16:06:13.786Z,1.80
2018-12-03T16:08:42.548Z,1.97
2018-12-03T16:11:11.257Z,3.40
2018-12-03T16:13:39.993Z,1.80
2018-12-03T16:16:08.679Z,2.00
2018-12-03T16:18:37.363Z,1.87
2018-12-03T16:21:06.074Z,2.17
2018-12-03T16:23:34.739Z,1.80
2018-12-03T16:26:03.436Z,2.10
2018-12-03T16:28:32.113Z,2.13
2018-12-03T16:31:00.791Z,2.27
2018-12-03T16:33:29.458Z,1.83
2018-12-03T16:35:58.138Z,2.00
2018-12-03T16:38:26.842Z,2.47
2018-12-03T16:40:55.917Z,2.47
2018-12-03T16:43:24.559Z,2.63
2018-12-03T16:45:53.255Z,1.90
2018-12-03T16:48:21.935Z,3.03
2018-12-03T16:50:50.590Z,1.63
2018-12-03T16:53:19.262Z,1.67
2018-12-03T16:55:47.928Z,1.53
2018-12-03T16:58:16.613Z,2.40
2018-12-03T17:00:45.277Z,1.90
2018-12-03T17:03:13.946Z,1.50
2018-12-03T17:05:42.620Z,2.13
2018-12-03T17:08:11.294Z,2.80
2018-12-03T17:10:39.991Z,2.27
2018-12-03T17:13:08.697Z,1.70
2018-12-03T17:15:37.378Z,2.77
2018-12-03T17:18:06.081Z,2.20
2018-12-03T17:21:08.692Z,1.90
2018-12-03T17:24:52.031Z,2.17
2018-12-03T17:27:20.691Z,2.20
2018-12-03T17:29:49.378Z,2.37
2018-12-03T17:32:18.038Z,1.93
2018-12-03T17:34:48.931Z,1.83
2018-12-03T17:37:15.434Z,2.00
2018-12-03T17:39:44.107Z,2.20
2018-12-03T17:42:12.810Z,1.90
2018-12-03T17:44:41.534Z,1.73
2018-12-03T17:47:10.653Z,2.20
2018-12-03T17:49:39.332Z,2.70
2018-12-03T17:52:08.008Z,2.27
2018-12-03T17:54:36.692Z,2.30
2018-12-03T17:57:05.415Z,2.50
2018-12-03T17:59:34.076Z,1.83
2018-12-03T18:02:02.771Z,1.63
2018-12-03T18:04:31.447Z,2.37
2018-12-03T18:07:00.132Z,2.17
2018-12-03T18:09:28.860Z,2.70
2018-12-03T18:11:57.562Z,3.00
2018-12-03T18:14:26.223Z,1.97
2018-12-03T18:16:54.926Z,2.20
2018-12-03T18:19:23.600Z,2.57
2018-12-03T18:21:52.257Z,2.33
2018-12-03T18:24:20.924Z,2.73
2018-12-03T18:26:49.697Z,2.63
2018-12-03T18:29:18.941Z,3.00
2018-12-03T18:31:47.769Z,2.67
2018-12-03T18:34:16.518Z,2.23
2018-12-03T18:36:45.311Z,2.40
2018-12-03T18:39:14.023Z,2.10
2018-12-03T18:41:42.759Z,2.20
2018-12-03T18:44:11.527Z,2.90
2018-12-03T18:46:43.297Z,3.90
2018-12-03T18:49:19.635Z,4.23
2018-12-03T18:51:48.519Z,2.73
2018-12-03T18:54:17.433Z,3.67
2018-12-03T18:56:46.137Z,3.40
2018-12-03T18:59:14.810Z,3.73
2018-12-03T19:01:43.494Z,5.93
2018-12-03T19:04:12.180Z,2.80
2018-12-03T19:06:40.864Z,3.00
2018-12-03T19:09:09.650Z,3.10
2018-12-03T19:11:38.359Z,3.30
2018-12-03T19:14:07.098Z,3.50
2018-12-03T19:16:35.998Z,3.53
2018-12-03T19:19:04.708Z,3.70
2018-12-03T19:21:33.450Z,5.37
2018-12-03T19:24:02.172Z,7.40
2018-12-03T19:26:30.867Z,7.63
2018-12-03T19:28:59.745Z,4.23
2018-12-03T19:31:28.460Z,3.77
2018-12-03T19:33:57.171Z,2.77
2018-12-03T19:36:26.007Z,2.30
2018-12-03T19:38:54.690Z,2.50
2018-12-03T19:41:23.579Z,2.57
2018-12-03T19:43:52.433Z,2.93
2018-12-03T19:46:21.312Z,2.93
2018-12-03T19:48:50.183Z,3.07
2018-12-03T19:51:19.110Z,2.63
2018-12-03T19:53:47.911Z,2.00
2018-12-03T19:56:16.571Z,1.93
2018-12-03T19:58:47.901Z,2.00
2018-12-03T20:01:16.606Z,3.07
2018-12-03T20:03:45.298Z,2.70
2018-12-03T20:06:13.985Z,3.00
2018-12-03T20:08:42.692Z,3.50
2018-12-03T20:11:11.433Z,3.60
2018-12-03T20:13:40.137Z,4.00
2018-12-03T20:16:09.620Z,4.83
2018-12-03T20:18:38.478Z,3.60
2018-12-03T20:21:12.407Z,2.40
2018-12-03T20:23:45.119Z,1.63
2018-12-03T20:26:24.362Z,3.00
2018-12-03T20:29:03.288Z,2.57
2018-12-03T20:31:48.868Z,2.13
2018-12-03T20:34:29.977Z,3.30
2018-12-03T20:37:48.352Z,4.03
2018-12-03T20:40:24.959Z,3.90
2018-12-03T20:43:06.302Z,2.70
2018-12-03T20:46:48.707Z,2.40
2018-12-03T20:49:27.346Z,2.40
2018-12-03T20:52:03.898Z,2.57
2018-12-03T20:54:32.579Z,3.10
2018-12-03T20:57:01.904Z,3.50
2018-12-03T20:59:30.646Z,3.87
2018-12-03T21:01:59.416Z,3.03
2018-12-03T21:04:28.146Z,4.67
2018-12-03T21:07:31.170Z,3.10
2018-12-03T21:10:01.133Z,2.93
2018-12-03T21:12:29.788Z,2.63
2018-12-03T21:14:58.504Z,2.20
2018-12-03T21:17:27.313Z,2.67
2018-12-03T21:20:00.571Z,2.50
2018-12-03T21:22:29.281Z,2.73
2018-12-03T21:24:57.950Z,2.33
2018-12-03T21:27:26.638Z,2.17
2018-12-03T21:29:55.290Z,1.50
2018-12-03T21:32:24.039Z,1.73
2018-12-03T21:34:52.731Z,1.93
2018-12-03T21:37:21.399Z,2.23
2018-12-03T21:39:50.562Z,2.00
2018-12-03T21:42:19.227Z,2.63
2018-12-03T21:44:47.904Z,1.80
2018-12-03T21:47:16.584Z,2.10
2018-12-03T21:49:45.217Z,2.37
2018-12-03T21:52:13.883Z,2.40
2018-12-03T21:54:42.520Z,1.83
2018-12-03T21:57:11.151Z,2.07
2018-12-03T21:59:39.829Z,1.90
2018-12-03T22:02:09.662Z,1.77
2018-12-03T22:04:38.302Z,1.43
2018-12-03T22:07:07.099Z,1.80
2018-12-03T22:09:37.124Z,1.40
2018-12-03T22:12:05.803Z,1.60
2018-12-03T22:14:34.487Z,1.87
2018-12-03T22:17:03.111Z,1.63
2018-12-03T22:19:31.758Z,1.57
2018-12-03T22:22:00.481Z,2.10
2018-12-03T22:24:29.102Z,2.00
2018-12-03T22:26:57.706Z,1.90
2018-12-03T22:29:26.314Z,1.57
2018-12-03T22:31:54.951Z,1.50
2018-12-03T22:34:23.582Z,1.53
2018-12-03T22:36:52.187Z,1.70
2018-12-03T22:39:21.090Z,1.90
2018-12-03T22:41:50.164Z,1.97
2018-12-03T22:44:18.817Z,1.80
2018-12-03T22:46:47.980Z,2.00
2018-12-03T22:49:16.593Z,1.77
2018-12-03T22:51:45.239Z,1.80
2018-12-03T22:54:13.883Z,2.03
2018-12-03T22:56:42.518Z,1.70
2018-12-03T22:59:11.151Z,1.60
2018-12-03T23:01:39.783Z,1.90
2018-12-03T23:04:08.489Z,1.73
2018-12-03T23:06:37.702Z,1.83
2018-12-03T23:09:08.109Z,1.77
2018-12-03T23:11:36.944Z,2.37
2018-12-03T23:14:05.572Z,1.70
2018-12-03T23:16:34.211Z,1.77
2018-12-03T23:19:02.841Z,1.67
2018-12-03T23:21:31.483Z,1.77
2018-12-03T23:24:00.102Z,2.13
2018-12-03T23:26:28.726Z,2.00
2018-12-03T23:28:57.347Z,2.30
2018-12-03T23:31:25.965Z,2.73
2018-12-03T23:33:54.621Z,2.57
2018-12-03T23:36:23.262Z,2.40
2018-12-03T23:38:51.902Z,2.13
2018-12-03T23:41:20.550Z,2.27
2018-12-03T23:43:49.268Z,2.53
2018-12-03T23:46:17.894Z,2.30
2018-12-03T23:48:46.507Z,2.27
2018-12-03T23:51:15.150Z,2.10
2018-12-03T23:53:44.419Z,2.03
2018-12-03T23:56:13.042Z,2.17
2018-12-03T23:58:41.695Z,2.40
